Time;durP1;ratioP1;P1;durP2;ratioP2;P2;SDS_P1;SDS_P2;PMS_P1;PMS_P2;Temp;Humidity;BMP_temperature;BMP_pressure;BME280_temperature;BME280_humidity;BME280_pressure;Samples;Min_cycle;Max_cycle;Signal;HPM_P1;HPM_P2
2023/02/23 00:01:26;;;;;;;65.97;34.85;;;8.10;99.90;;;;;;5096232;28;20474;-74
2023/02/23 00:03:57;;;;;;;67.32;32.90;;;8.00;99.90;;;;;;5114148;28;20072;-74
2023/02/23 00:06:25;;;;;;;66.88;34.55;;;8.00;99.90;;;;;;5095924;28;20556;-74
2023/02/23 00:08:51;;;;;;;65.55;33.80;;;7.90;99.90;;;;;;5114223;28;20565;-74
2023/02/23 00:11:18;;;;;;;71.22;35.20;;;8.00;99.90;;;;;;5095899;28;20074;-75
2023/02/23 00:13:45;;;;;;;68.85;34.40;;;8.00;99.90;;;;;;5114088;28;20043;-74
2023/02/23 00:16:17;;;;;;;66.50;34.00;;;7.90;99.90;;;;;;5095909;28;20042;-74
2023/02/23 00:18:54;;;;;;;71.15;33.72;;;8.00;99.90;;;;;;5114093;28;20040;-74
2023/02/23 00:21:22;;;;;;;65.60;35.47;;;8.00;99.90;;;;;;5114019;28;20036;-74
2023/02/23 00:23:54;;;;;;;63.58;33.03;;;8.00;99.90;;;;;;5095407;28;20039;-74
2023/02/23 00:26:21;;;;;;;66.05;31.77;;;8.00;99.90;;;;;;5114235;28;20088;-74
2023/02/23 00:28:48;;;;;;;66.97;34.70;;;7.90;99.90;;;;;;5113979;28;20039;-74
2023/02/23 00:31:14;;;;;;;72.05;35.60;;;7.90;99.90;;;;;;5113693;28;20066;-74
2023/02/23 00:33:40;;;;;;;72.30;36.70;;;7.90;99.90;;;;;;5113669;28;20519;-74
2023/02/23 00:36:12;;;;;;;65.22;34.80;;;7.90;99.90;;;;;;5113911;28;20051;-74
2023/02/23 00:38:38;;;;;;;71.35;36.47;;;8.00;99.90;;;;;;5113046;28;20078;-74
2023/02/23 00:41:29;;;;;;;72.65;37.67;;;8.00;99.90;;;;;;5095433;28;20501;-74
2023/02/23 00:43:57;;;;;;;74.45;38.92;;;7.90;99.90;;;;;;5113231;28;20134;-74
2023/02/23 00:46:28;;;;;;;71.85;36.45;;;7.90;99.90;;;;;;5113704;28;20066;-74
2023/02/23 00:48:55;;;;;;;70.60;35.08;;;7.90;99.90;;;;;;5113491;28;20563;-74
2023/02/23 00:51:22;;;;;;;61.25;33.67;;;7.90;99.90;;;;;;5113405;28;20040;-74
2023/02/23 00:53:48;;;;;;;79.53;38.42;;;8.00;99.90;;;;;;5094878;28;20049;-74
2023/02/23 00:56:15;;;;;;;85.85;40.25;;;7.90;99.90;;;;;;5113182;28;20047;-74
2023/02/23 00:58:41;;;;;;;77.90;38.38;;;8.00;99.90;;;;;;5113171;28;20089;-74
2023/02/23 01:01:08;;;;;;;83.03;40.97;;;8.00;99.90;;;;;;5094888;28;20043;-74
2023/02/23 01:03:35;;;;;;;80.30;39.28;;;8.00;99.90;;;;;;5112949;28;20350;-73
2023/02/23 01:06:04;;;;;;;84.22;40.28;;;8.00;99.90;;;;;;5113225;28;20437;-74
2023/02/23 01:08:34;;;;;;;79.72;39.63;;;8.00;99.90;;;;;;5113099;28;20148;-74
2023/02/23 01:11:06;;;;;;;86.45;40.58;;;8.00;99.90;;;;;;5112722;28;20035;-74
2023/02/23 01:13:31;;;;;;;86.22;42.72;;;8.10;99.90;;;;;;5112659;28;20047;-74
2023/02/23 01:15:57;;;;;;;79.45;40.28;;;8.10;99.90;;;;;;5113104;28;20044;-74
2023/02/23 01:18:23;;;;;;;89.00;41.55;;;8.10;99.90;;;;;;5094787;28;20047;-74
2023/02/23 01:20:49;;;;;;;89.72;42.60;;;8.10;99.90;;;;;;5094093;28;20039;-73
2023/02/23 01:23:15;;;;;;;85.07;41.50;;;8.00;99.90;;;;;;5103331;28;20098;-73
2023/02/23 01:25:43;;;;;;;78.65;38.05;;;8.00;99.90;;;;;;5109655;28;20035;-73
2023/02/23 01:28:09;;;;;;;94.57;42.15;;;8.10;99.90;;;;;;5112855;28;20067;-72
2023/02/23 01:30:35;;;;;;;88.22;42.75;;;8.00;99.90;;;;;;5112713;28;20039;-73
2023/02/23 01:33:01;;;;;;;81.18;40.40;;;8.00;99.90;;;;;;5094184;28;20422;-72
2023/02/23 01:35:28;;;;;;;92.88;41.28;;;8.20;99.90;;;;;;5112662;28;20050;-72
2023/02/23 01:37:53;;;;;;;91.43;43.17;;;8.20;99.90;;;;;;5112526;28;20046;-72
2023/02/23 01:40:27;;;;;;;89.28;43.03;;;8.10;99.90;;;;;;5112784;28;20115;-72
2023/02/23 01:42:57;;;;;;;83.40;40.42;;;8.20;99.90;;;;;;5112274;28;20032;-73
2023/02/23 01:45:28;;;;;;;85.47;41.15;;;8.20;99.90;;;;;;5112530;28;20039;-73
2023/02/23 01:48:00;;;;;;;86.30;41.25;;;8.10;99.90;;;;;;5112438;28;20126;-72
2023/02/23 01:50:29;;;;;;;87.55;41.60;;;8.20;99.90;;;;;;5111927;28;20043;-73
2023/02/23 01:52:55;;;;;;;94.72;43.97;;;8.10;99.90;;;;;;5103606;28;20039;-72
2023/02/23 01:55:23;;;;;;;91.28;43.78;;;8.20;99.90;;;;;;5112436;28;20039;-72
2023/02/23 01:58:02;;;;;;;89.07;42.58;;;8.10;99.90;;;;;;5094083;28;20091;-73
2023/02/23 02:00:30;;;;;;;92.82;43.22;;;8.20;99.90;;;;;;5094218;28;20079;-73
2023/02/23 02:02:57;;;;;;;86.93;43.05;;;8.20;99.90;;;;;;5111803;28;20097;-72
2023/02/23 02:05:23;;;;;;;90.35;44.63;;;8.10;99.90;;;;;;5112355;28;20119;-73
2023/02/23 02:07:57;;;;;;;98.57;43.97;;;8.20;99.90;;;;;;5112282;28;20459;-72
2023/02/23 02:10:43;;;;;;;93.70;43.08;;;8.10;99.90;;;;;;5112132;28;20039;-73
2023/02/23 02:13:13;;;;;;;105.05;46.10;;;8.10;99.90;;;;;;5093758;28;20051;-72
2023/02/23 02:15:53;;;;;;;99.22;45.63;;;8.10;99.90;;;;;;5111988;28;20097;-73
2023/02/23 02:18:37;;;;;;;104.20;44.88;;;8.10;99.90;;;;;;5112289;28;20167;-73
2023/02/23 02:21:30;;;;;;;108.35;47.55;;;8.10;99.90;;;;;;5111935;28;20092;-73
2023/02/23 02:24:20;;;;;;;100.57;46.72;;;8.10;99.90;;;;;;5111627;28;20047;-72
2023/02/23 02:27:30;;;;;;;91.45;43.13;;;8.00;99.90;;;;;;5093690;28;20051;-73
2023/02/23 02:30:21;;;;;;;96.93;43.10;;;8.00;99.90;;;;;;5066285;28;20075;-72
2023/02/23 02:33:25;;;;;;;100.10;45.40;;;8.00;99.90;;;;;;5101053;28;20056;-72
2023/02/23 02:36:12;;;;;;;104.20;46.88;;;8.10;99.90;;;;;;5093785;28;20032;-73
2023/02/23 02:38:49;;;;;;;102.68;44.92;;;8.00;99.90;;;;;;5111795;28;20048;-72
2023/02/23 02:41:40;;;;;;;90.00;45.08;;;8.10;99.90;;;;;;5093737;28;20054;-73
2023/02/23 02:44:16;;;;;;;101.38;45.92;;;8.00;99.90;;;;;;5111598;28;20517;-73
2023/02/23 02:46:48;;;;;;;98.32;45.70;;;8.00;99.90;;;;;;5111715;28;20406;-72
2023/02/23 02:49:20;;;;;;;98.28;46.08;;;8.00;99.90;;;;;;5111970;28;20051;-73
2023/02/23 02:52:04;;;;;;;103.47;45.20;;;8.00;99.90;;;;;;5111637;28;20546;-72
2023/02/23 02:54:32;;;;;;;88.63;44.08;;;8.10;99.90;;;;;;5093249;28;20043;-72
2023/02/23 02:57:03;;;;;;;101.13;44.50;;;8.00;99.90;;;;;;5111630;28;20044;-72
2023/02/23 04:17:37;;;;;;;103.72;46.05;;;8.00;99.90;;;;;;5114103;28;20521;-73
2023/02/23 04:20:03;;;;;;;95.05;45.50;;;8.10;99.90;;;;;;5113848;28;20032;-72
2023/02/23 04:22:28;;;;;;;100.68;47.65;;;8.00;99.90;;;;;;5093458;22;20051;-71
2023/02/23 04:24:55;;;;;;;101.20;46.45;;;8.10;99.90;;;;;;5071337;28;20036;-71
2023/02/23 04:27:20;;;;;;;98.43;42.17;;;8.00;99.90;;;;;;5088980;28;20044;-71
2023/02/23 04:29:46;;;;;;;108.22;47.00;;;8.10;99.90;;;;;;5071391;28;20509;-71
2023/02/23 04:32:14;;;;;;;101.70;48.35;;;8.10;99.90;;;;;;5072851;28;20036;-71
2023/02/23 04:34:40;;;;;;;108.68;48.28;;;8.00;99.90;;;;;;5072992;28;20045;-71
2023/02/23 04:37:05;;;;;;;113.55;47.53;;;8.00;99.90;;;;;;5072975;28;20033;-71
2023/02/23 04:39:31;;;;;;;101.03;46.78;;;8.00;99.90;;;;;;5072838;28;20055;-71
2023/02/23 04:41:56;;;;;;;103.85;46.45;;;8.00;99.90;;;;;;5054852;28;20044;-72
2023/02/23 04:44:22;;;;;;;99.00;46.45;;;7.90;99.90;;;;;;5072772;28;20041;-71
2023/02/23 04:46:47;;;;;;;111.78;46.15;;;8.00;99.90;;;;;;5073136;28;20572;-71
2023/02/23 04:49:13;;;;;;;103.43;47.33;;;8.00;99.90;;;;;;5072840;28;20043;-71
2023/02/23 04:51:39;;;;;;;107.97;47.28;;;8.00;99.90;;;;;;5072612;28;20400;-71
2023/02/23 04:54:04;;;;;;;101.70;45.58;;;8.00;99.90;;;;;;5072319;28;20102;-71
2023/02/23 04:56:31;;;;;;;107.82;47.03;;;7.90;99.90;;;;;;5072836;28;20033;-70
2023/02/23 04:58:56;;;;;;;103.40;47.50;;;7.90;99.90;;;;;;5071328;28;20086;-70
2023/02/23 05:01:22;;;;;;;107.13;46.55;;;8.00;99.90;;;;;;5071118;28;20419;-70
2023/02/23 05:03:48;;;;;;;104.00;48.65;;;7.90;99.90;;;;;;5072186;28;20037;-71
2023/02/23 05:06:18;;;;;;;109.55;47.92;;;8.00;99.90;;;;;;5072314;28;20086;-70
2023/02/23 05:08:44;;;;;;;106.25;49.17;;;7.90;99.90;;;;;;5072231;28;20037;-70
2023/02/23 05:11:10;;;;;;;103.60;45.65;;;8.00;99.90;;;;;;5072530;28;20512;-70
2023/02/23 05:13:35;;;;;;;113.85;51.42;;;8.00;99.90;;;;;;5070823;28;20079;-71
2023/02/23 05:16:01;;;;;;;107.25;47.65;;;7.90;99.90;;;;;;5072179;28;20119;-71
2023/02/23 05:18:27;;;;;;;112.45;49.10;;;7.90;99.90;;;;;;5071032;28;20084;-71
2023/02/23 05:21:00;;;;;;;107.53;46.35;;;7.90;99.90;;;;;;5072393;28;20048;-71
2023/02/23 05:23:25;;;;;;;109.40;46.83;;;7.90;99.90;;;;;;5070974;28;20041;-71
2023/02/23 05:25:51;;;;;;;109.65;48.92;;;7.90;99.90;;;;;;5071734;28;20043;-71
2023/02/23 05:28:16;;;;;;;107.93;46.78;;;7.80;99.90;;;;;;5072455;28;20036;-73
2023/02/23 05:30:42;;;;;;;117.50;49.88;;;7.90;99.90;;;;;;5072566;28;20039;-71
2023/02/23 05:33:07;;;;;;;112.95;49.08;;;7.90;99.90;;;;;;5070523;28;20408;-71
2023/02/23 05:35:34;;;;;;;102.43;45.40;;;7.90;99.90;;;;;;5070782;28;20119;-71
2023/02/23 05:38:00;;;;;;;105.35;45.78;;;8.00;99.90;;;;;;5072284;28;20056;-71
2023/02/23 05:40:25;;;;;;;104.07;46.42;;;7.90;99.90;;;;;;5072063;28;20529;-71
2023/02/23 05:42:51;;;;;;;100.57;45.00;;;7.90;99.90;;;;;;5070242;28;20033;-70
2023/02/23 05:45:16;;;;;;;99.78;42.22;;;7.80;99.90;;;;;;5071926;28;20086;-71
2023/02/23 05:47:42;;;;;;;93.22;43.20;;;7.90;99.90;;;;;;5070714;28;20028;-71
2023/02/23 05:50:10;;;;;;;100.07;43.72;;;7.80;99.90;;;;;;5053695;28;20074;-71
2023/02/23 05:52:40;;;;;;;97.40;43.67;;;7.80;99.90;;;;;;5071691;28;20497;-71
2023/02/23 05:55:08;;;;;;;104.38;46.13;;;7.90;99.90;;;;;;5071478;28;20670;-71
2023/02/23 05:57:34;;;;;;;96.75;42.42;;;7.90;99.90;;;;;;5071749;28;20063;-71
2023/02/23 05:59:59;;;;;;;93.93;41.22;;;7.90;99.90;;;;;;5071711;28;20040;-71
2023/02/23 06:02:25;;;;;;;97.65;43.85;;;7.90;99.90;;;;;;5071368;28;20037;-71
2023/02/23 06:04:50;;;;;;;93.90;41.35;;;7.80;99.90;;;;;;5071306;28;20076;-71
2023/02/23 06:07:16;;;;;;;93.38;40.47;;;7.90;99.90;;;;;;5071782;28;20141;-71
2023/02/23 06:09:41;;;;;;;102.95;43.33;;;7.90;99.90;;;;;;5071463;28;20043;-71
2023/02/23 06:12:07;;;;;;;93.55;41.88;;;7.90;99.90;;;;;;5071339;28;20040;-70
2023/02/23 06:14:34;;;;;;;100.50;43.05;;;7.80;99.90;;;;;;5069669;28;20044;-70
2023/02/23 06:17:00;;;;;;;96.18;41.97;;;7.90;99.90;;;;;;5053194;28;20040;-70
2023/02/23 06:19:25;;;;;;;97.15;39.35;;;7.90;99.90;;;;;;5071054;28;20408;-70
2023/02/23 06:21:54;;;;;;;96.75;41.65;;;7.80;99.90;;;;;;5069768;28;20033;-70
2023/02/23 06:24:20;;;;;;;91.25;41.35;;;7.90;99.90;;;;;;5070964;28;20064;-69
2023/02/23 06:26:46;;;;;;;95.60;42.00;;;7.90;99.90;;;;;;5070536;28;20037;-69
2023/02/23 06:29:12;;;;;;;92.20;39.38;;;7.90;99.90;;;;;;5071165;28;20060;-69
2023/02/23 06:31:38;;;;;;;88.38;38.28;;;7.80;99.90;;;;;;5069785;28;20519;-69
2023/02/23 06:34:03;;;;;;;84.43;37.63;;;7.90;99.90;;;;;;5070689;28;20045;-70
2023/02/23 06:36:29;;;;;;;89.95;38.78;;;7.90;99.90;;;;;;5069974;28;20044;-69
2023/02/23 06:38:56;;;;;;;81.18;36.65;;;7.90;99.90;;;;;;5073457;28;20041;-69
2023/02/23 06:41:22;;;;;;;82.43;35.65;;;7.90;99.90;;;;;;5074939;28;20041;-69
2023/02/23 06:43:48;;;;;;;82.30;36.58;;;7.80;99.90;;;;;;5074774;28;20037;-68
2023/02/23 06:46:13;;;;;;;72.20;34.58;;;7.90;99.90;;;;;;5073198;28;20492;-69
2023/02/23 06:48:40;;;;;;;73.57;34.30;;;7.90;99.90;;;;;;5072599;28;20035;-70
2023/02/23 06:51:05;;;;;;;71.78;33.72;;;7.90;99.90;;;;;;5074771;28;20045;-69
2023/02/23 06:53:32;;;;;;;64.68;33.97;;;7.90;99.90;;;;;;5074335;28;20041;-69
2023/02/23 06:55:58;;;;;;;63.47;29.63;;;7.90;99.90;;;;;;5074844;28;20462;-68
2023/02/23 06:58:24;;;;;;;67.20;30.23;;;7.90;99.90;;;;;;5074632;28;20044;-69
2023/02/23 07:00:49;;;;;;;61.10;27.80;;;7.90;99.90;;;;;;5074600;28;20045;-71
2023/02/23 07:03:15;;;;;;;66.00;30.08;;;7.90;99.90;;;;;;5073854;28;20554;-71
2023/02/23 07:05:40;;;;;;;54.45;27.88;;;7.90;99.90;;;;;;5073266;28;20033;-72
2023/02/23 07:08:06;;;;;;;57.55;27.35;;;7.90;99.90;;;;;;5074202;28;20055;-72
2023/02/23 07:10:32;;;;;;;58.05;27.00;;;7.90;99.90;;;;;;5074151;28;20037;-71
2023/02/23 07:12:58;;;;;;;47.47;24.58;;;7.90;99.90;;;;;;5072661;28;20119;-72
2023/02/23 07:15:24;;;;;;;51.95;24.70;;;7.80;99.90;;;;;;5072957;28;20154;-72
2023/02/23 07:17:51;;;;;;;50.20;23.98;;;7.90;99.90;;;;;;5074079;28;20098;-72
2023/02/23 07:20:18;;;;;;;47.47;23.33;;;7.80;99.90;;;;;;5074250;28;20036;-72
2023/02/23 07:22:44;;;;;;;48.63;24.35;;;7.80;99.90;;;;;;5073943;28;20098;-72
2023/02/23 07:25:10;;;;;;;50.72;24.95;;;7.70;99.90;;;;;;5074260;28;20033;-72
2023/02/23 07:27:35;;;;;;;44.63;23.23;;;7.80;99.90;;;;;;5074071;28;20044;-72
2023/02/23 07:30:04;;;;;;;47.45;24.77;;;7.80;99.90;;;;;;5055879;28;20083;-72
2023/02/23 07:32:29;;;;;;;43.83;21.77;;;7.80;99.90;;;;;;5072279;28;20112;-72
2023/02/23 07:34:55;;;;;;;42.75;23.27;;;7.70;99.90;;;;;;5072583;28;20041;-73
2023/02/23 07:37:20;;;;;;;44.92;23.30;;;7.70;99.90;;;;;;5073921;28;20040;-72
2023/02/23 07:39:46;;;;;;;43.35;23.88;;;7.80;99.90;;;;;;5073782;28;20040;-71
2023/02/23 07:42:12;;;;;;;45.17;22.23;;;7.70;99.90;;;;;;5072296;28;20045;-71
2023/02/23 07:44:38;;;;;;;41.65;21.88;;;7.70;99.90;;;;;;5072131;28;20079;-71
2023/02/23 07:47:05;;;;;;;44.30;23.23;;;7.70;99.90;;;;;;5073843;28;20062;-72
2023/02/23 07:49:31;;;;;;;45.85;21.58;;;7.80;99.90;;;;;;5073221;28;20044;-72
2023/02/23 07:51:57;;;;;;;43.28;22.05;;;7.70;99.90;;;;;;5055523;28;20048;-71
2023/02/23 07:54:24;;;;;;;47.00;24.40;;;7.70;99.90;;;;;;5073430;28;20037;-71
2023/02/23 07:56:50;;;;;;;45.92;23.83;;;7.70;99.90;;;;;;5073652;28;20041;-72
2023/02/23 07:59:16;;;;;;;44.90;22.92;;;7.70;99.90;;;;;;5072563;28;20381;-72
2023/02/23 08:01:42;;;;;;;45.88;22.42;;;7.80;99.90;;;;;;5073821;28;20041;-71
2023/02/23 08:04:07;;;;;;;45.28;23.55;;;7.70;99.90;;;;;;5072068;28;20408;-72
2023/02/23 08:06:33;;;;;;;49.67;23.98;;;7.70;99.90;;;;;;5073641;28;20120;-71
2023/02/23 08:09:00;;;;;;;40.53;22.30;;;7.70;99.90;;;;;;5072271;28;20032;-71
2023/02/23 08:11:27;;;;;;;42.55;22.73;;;7.80;99.90;;;;;;5073637;28;20033;-71
2023/02/23 08:13:58;;;;;;;47.05;23.90;;;7.80;99.90;;;;;;5072033;28;20058;-72
2023/02/23 08:16:30;;;;;;;42.50;20.77;;;7.80;99.90;;;;;;5072606;28;20040;-71
2023/02/23 08:18:57;;;;;;;44.67;22.23;;;7.80;99.90;;;;;;5073425;28;20051;-72
2023/02/23 08:21:23;;;;;;;41.15;21.35;;;7.70;99.90;;;;;;5072220;28;20067;-72
2023/02/23 08:23:49;;;;;;;40.50;21.45;;;7.70;99.90;;;;;;5072061;28;20055;-71
2023/02/23 08:26:14;;;;;;;41.95;23.15;;;7.80;99.90;;;;;;5072111;28;20037;-71
2023/02/23 08:28:44;;;;;;;37.58;21.23;;;7.70;99.90;;;;;;5071729;28;20040;-72
2023/02/23 08:31:11;;;;;;;41.08;20.40;;;7.80;99.90;;;;;;5071698;28;20036;-71
2023/02/23 08:33:38;;;;;;;39.42;20.13;;;7.80;99.90;;;;;;5071358;28;20444;-71
2023/02/23 08:36:04;;;;;;;38.42;21.40;;;7.80;99.90;;;;;;5071473;28;20048;-71
2023/02/23 08:38:30;;;;;;;37.35;20.65;;;7.80;99.90;;;;;;5072658;28;20523;-71
2023/02/23 08:40:59;;;;;;;40.67;21.45;;;7.70;99.90;;;;;;5072518;28;20045;-71
2023/02/23 08:43:25;;;;;;;38.10;21.05;;;7.70;99.90;;;;;;5070901;28;20732;-71
2023/02/23 08:45:50;;;;;;;41.80;20.00;;;7.70;99.90;;;;;;5068913;28;20036;-71
2023/02/23 08:48:16;;;;;;;43.78;21.13;;;7.70;99.90;;;;;;5070995;28;20041;-71
2023/02/23 08:50:42;;;;;;;43.80;21.52;;;7.70;99.90;;;;;;5070886;28;20044;-72
2023/02/23 08:53:07;;;;;;;43.78;21.42;;;7.70;99.90;;;;;;5072101;28;20051;-72
2023/02/23 08:55:34;;;;;;;43.28;21.73;;;7.70;99.90;;;;;;5072188;28;20047;-71
2023/02/23 08:58:00;;;;;;;47.85;21.48;;;7.70;99.90;;;;;;5072150;28;20555;-72
2023/02/23 09:00:25;;;;;;;43.25;21.85;;;7.70;99.90;;;;;;5071465;28;20123;-72
2023/02/23 09:02:51;;;;;;;45.17;22.08;;;7.60;99.90;;;;;;5053801;28;20128;-72
2023/02/23 09:05:17;;;;;;;53.38;25.30;;;7.70;99.90;;;;;;5070762;28;20063;-72
2023/02/23 09:07:44;;;;;;;49.63;22.25;;;7.60;99.90;;;;;;5072153;28;20028;-72
2023/02/23 09:10:18;;;;;;;44.55;23.17;;;7.60;99.90;;;;;;5070764;28;20044;-72
2023/02/23 09:12:44;;;;;;;52.83;22.98;;;7.70;99.90;;;;;;5053942;28;20032;-71
2023/02/23 09:15:10;;;;;;;49.50;23.00;;;7.60;99.90;;;;;;5070789;28;20120;-72
2023/02/23 09:17:36;;;;;;;47.92;22.92;;;7.60;99.90;;;;;;5070591;28;20044;-72
2023/02/23 09:20:03;;;;;;;51.45;22.92;;;7.60;99.90;;;;;;5070423;28;20173;-70
2023/02/23 09:22:28;;;;;;;46.85;23.33;;;7.50;99.90;;;;;;5070388;28;20119;-70
2023/02/23 09:24:54;;;;;;;47.70;23.98;;;7.50;99.90;;;;;;5053425;28;20500;-70
2023/02/23 09:27:19;;;;;;;49.90;23.15;;;7.60;99.90;;;;;;5070345;28;20036;-70
2023/02/23 09:29:45;;;;;;;47.35;24.33;;;7.70;99.90;;;;;;5053670;28;20040;-71
2023/02/23 09:32:11;;;;;;;53.45;24.27;;;7.70;99.90;;;;;;5070325;28;20085;-70
2023/02/23 09:34:37;;;;;;;57.90;24.45;;;7.70;99.90;;;;;;5069989;28;20056;-71
2023/02/23 09:37:03;;;;;;;52.42;24.73;;;7.60;99.90;;;;;;5070478;28;20040;-73
2023/02/23 09:39:28;;;;;;;52.85;24.45;;;7.60;99.90;;;;;;5070562;28;20043;-73
2023/02/23 09:42:09;;;;;;;50.80;23.92;;;7.70;99.90;;;;;;5071757;28;20098;-73
2023/02/23 09:44:58;;;;;;;51.22;24.33;;;7.70;99.90;;;;;;5070110;28;20041;-73
2023/02/23 09:47:35;;;;;;;50.83;26.45;;;7.70;99.90;;;;;;5069879;28;20045;-73
2023/02/23 09:50:05;;;;;;;53.38;25.00;;;7.60;99.90;;;;;;5071679;28;20067;-73
2023/02/23 09:52:43;;;;;;;52.38;24.10;;;7.60;99.90;;;;;;5069728;28;20033;-71
2023/02/23 09:55:14;;;;;;;51.97;24.08;;;7.60;99.90;;;;;;5071325;28;20095;-72
2023/02/23 09:57:43;;;;;;;57.38;26.17;;;7.70;99.90;;;;;;5069984;28;20040;-72
2023/02/23 10:00:18;;;;;;;57.70;25.30;;;7.70;99.90;;;;;;5069891;28;20530;-72
2023/02/23 10:02:57;;;;;;;49.83;24.33;;;7.80;99.90;;;;;;5069977;28;20040;-72
2023/02/23 10:05:25;;;;;;;52.63;25.35;;;7.90;99.90;;;;;;5071515;28;20044;-73
2023/02/23 10:07:57;;;;;;;53.97;24.10;;;7.90;99.90;;;;;;5070080;28;20039;-73
2023/02/23 10:10:38;;;;;;;53.58;25.73;;;8.00;99.90;;;;;;5053175;28;20036;-71
2023/02/23 10:13:11;;;;;;;49.55;23.60;;;8.00;99.90;;;;;;5069304;28;20036;-71
2023/02/23 10:15:41;;;;;;;46.85;22.73;;;8.00;99.90;;;;;;5053086;28;20557;-71
2023/02/23 10:18:28;;;;;;;51.63;24.23;;;8.00;99.90;;;;;;5069815;28;20072;-71
2023/02/23 10:21:03;;;;;;;49.97;22.97;;;8.10;99.90;;;;;;5096119;22;20120;-75
2023/02/23 10:23:44;;;;;;;52.13;23.35;;;8.20;99.90;;;;;;5050293;28;20114;-75
2023/02/23 10:26:16;;;;;;;54.45;24.60;;;8.20;99.90;;;;;;5051535;28;20049;-75
2023/02/23 10:28:42;;;;;;;48.60;22.02;;;8.20;99.90;;;;;;5049986;28;20191;-72
2023/02/23 10:31:27;;;;;;;48.42;22.90;;;8.50;99.90;;;;;;5050289;28;20400;-72
2023/02/23 10:33:57;;;;;;;50.00;23.75;;;8.60;99.90;;;;;;5051116;28;20037;-72
2023/02/23 10:36:42;;;;;;;51.85;24.25;;;8.80;99.90;;;;;;5050935;28;20686;-72
2023/02/23 10:39:11;;;;;;;55.83;24.00;;;9.00;99.90;;;;;;5050711;28;20095;-72
2023/02/23 10:41:37;;;;;;;52.88;25.60;;;9.10;99.90;;;;;;5050803;28;20055;-71
2023/02/23 10:44:06;;;;;;;53.25;25.70;;;9.20;99.90;;;;;;5050605;28;20048;-71
2023/02/23 10:46:39;;;;;;;54.40;23.88;;;9.20;99.90;;;;;;5049779;28;20044;-71
2023/02/23 10:49:11;;;;;;;59.42;26.23;;;9.20;99.90;;;;;;5049817;28;20033;-71
2023/02/23 10:51:38;;;;;;;59.03;26.88;;;9.20;99.90;;;;;;5051155;28;20495;-72
2023/02/23 10:54:35;;;;;;;64.68;28.55;;;9.20;99.90;;;;;;5050850;28;20048;-71
2023/02/23 10:57:00;;;;;;;68.68;27.40;;;9.20;99.90;;;;;;5051210;28;20043;-72
2023/02/23 10:59:26;;;;;;;67.75;27.98;;;9.30;99.90;;;;;;5051129;28;20037;-72
2023/02/23 11:01:52;;;;;;;65.18;27.55;;;9.20;99.90;;;;;;5049649;28;20106;-72
2023/02/23 11:04:25;;;;;;;65.63;28.17;;;9.30;99.90;;;;;;5049104;28;20049;-72
2023/02/23 11:07:18;;;;;;;76.43;31.05;;;9.30;99.90;;;;;;5047403;28;20040;-72
2023/02/23 11:09:43;;;;;;;71.70;28.33;;;9.20;99.90;;;;;;5049519;28;20036;-71
2023/02/23 11:12:21;;;;;;;75.82;30.67;;;9.20;99.90;;;;;;5051055;28;20041;-72
2023/02/23 11:14:48;;;;;;;74.20;29.02;;;9.20;99.90;;;;;;5050817;28;20048;-73
2023/02/23 11:17:34;;;;;;;71.93;27.60;;;9.30;99.90;;;;;;5050154;28;20041;-72
2023/02/23 11:20:04;;;;;;;71.80;27.90;;;9.20;99.90;;;;;;5050863;28;20124;-73
2023/02/23 11:22:32;;;;;;;80.63;28.92;;;9.10;99.90;;;;;;5050612;28;20052;-72
2023/02/23 11:24:59;;;;;;;61.65;24.58;;;9.00;99.90;;;;;;5053524;28;20052;-72
2023/02/23 11:27:26;;;;;;;73.13;24.48;;;8.90;99.90;;;;;;5053858;28;20041;-72
2023/02/23 11:29:56;;;;;;;70.78;23.90;;;8.80;99.90;;;;;;5052371;28;20037;-72
2023/02/23 11:32:28;;;;;;;68.80;25.90;;;8.90;99.90;;;;;;5052229;28;20048;-72
2023/02/23 11:35:26;;;;;;;69.30;24.27;;;8.80;99.90;;;;;;5054182;28;20045;-72
2023/02/23 11:37:52;;;;;;;58.03;21.58;;;8.60;99.90;;;;;;5054274;28;20048;-72
2023/02/23 11:40:26;;;;;;;67.22;23.30;;;8.70;99.90;;;;;;5053171;28;20226;-72
2023/02/23 11:43:06;;;;;;;63.88;23.88;;;8.80;99.90;;;;;;5053761;28;20048;-71
2023/02/23 11:45:49;;;;;;;60.33;24.45;;;8.80;99.90;;;;;;5053040;28;20037;-72
2023/02/23 11:48:19;;;;;;;;;;;8.90;99.90;;;;;;5054550;28;20496;-72
2023/02/23 11:50:47;;;;;;;64.80;23.92;;;9.00;99.90;;;;;;5052683;28;19959;-72
2023/02/23 11:53:16;;;;;;;69.93;25.73;;;9.00;99.90;;;;;;5053850;28;20124;-72
2023/02/23 11:55:53;;;;;;;65.97;25.30;;;9.00;99.90;;;;;;5052682;28;20040;-71
2023/02/23 11:58:28;;;;;;;62.05;23.70;;;9.20;99.90;;;;;;5052579;28;20052;-73
2023/02/23 12:01:03;;;;;;;62.63;25.77;;;9.20;99.90;;;;;;5053202;28;20557;-71
2023/02/23 12:03:32;;;;;;;55.55;22.10;;;9.20;99.90;;;;;;5053776;28;20132;-71
2023/02/23 12:05:58;;;;;;;62.03;24.50;;;9.30;99.90;;;;;;5053907;28;20037;-72
2023/02/23 12:08:44;;;;;;;52.13;22.25;;;9.30;99.90;;;;;;5053388;28;20562;-71
2023/02/23 12:11:19;;;;;;;56.50;20.85;;;9.30;99.90;;;;;;5053547;28;20068;-71
2023/02/23 12:13:50;;;;;;;59.17;23.65;;;9.30;99.90;;;;;;5053346;28;20522;-71
2023/02/23 12:16:23;;;;;;;53.67;22.45;;;9.30;99.90;;;;;;5053245;28;20037;-73
2023/02/23 12:19:01;;;;;;;;;;;9.20;99.90;;;;;;5053570;28;20037;-73
2023/02/23 12:21:32;;;;;;;57.90;23.08;;;9.20;99.90;;;;;;5051144;28;19917;-73
2023/02/23 12:24:16;;;;;;;54.90;21.88;;;9.30;99.90;;;;;;5052641;28;20497;-72
2023/02/23 12:27:03;;;;;;;55.08;21.80;;;9.30;99.90;;;;;;5053518;28;20048;-72
2023/02/23 12:29:38;;;;;;;73.40;25.38;;;9.20;99.90;;;;;;5053378;28;20037;-71
2023/02/23 12:32:11;;;;;;;64.75;23.02;;;9.20;99.90;;;;;;5050935;28;20071;-71
2023/02/23 12:34:57;;;;;;;71.85;26.17;;;9.20;99.90;;;;;;5052934;28;20467;-72
2023/02/23 12:37:27;;;;;;;65.22;24.13;;;9.20;99.90;;;;;;5049636;28;20120;-72
2023/02/23 12:40:09;;;;;;;81.95;28.52;;;9.00;99.90;;;;;;5052993;28;20602;-72
2023/02/23 12:42:40;;;;;;;80.78;29.73;;;9.10;99.90;;;;;;5052795;28;20120;-72
2023/02/23 12:45:12;;;;;;;86.90;30.52;;;9.00;99.90;;;;;;5052968;28;20060;-72
2023/02/23 12:47:45;;;;;;;82.35;30.20;;;9.00;99.90;;;;;;5053108;28;20041;-71
2023/02/23 12:50:17;;;;;;;;;;;8.80;99.90;;;;;;5053384;28;20041;-72
2023/02/23 12:53:17;;;;;;;86.35;28.70;;;8.80;99.90;;;;;;5052668;28;19917;-73
2023/02/23 12:56:07;;;;;;;97.38;32.40;;;8.90;99.90;;;;;;5052106;28;20055;-72
2023/02/23 12:58:56;;;;;;;93.63;32.15;;;8.90;99.90;;;;;;5052230;28;20522;-72
2023/02/23 13:01:54;;;;;;;110.25;35.50;;;9.00;99.90;;;;;;5052081;28;20051;-72
2023/02/23 13:04:55;;;;;;;105.00;32.30;;;8.80;99.90;;;;;;5048678;28;20526;-72
2023/02/23 13:07:40;;;;;;;105.47;33.70;;;8.70;99.90;;;;;;5050923;28;20037;-72
2023/02/23 13:10:38;;;;;;;94.30;33.17;;;8.70;99.90;;;;;;5050472;28;20048;-73
2023/02/23 13:13:41;;;;;;;115.25;35.72;;;8.60;99.90;;;;;;5052196;28;20033;-72
2023/02/23 13:16:28;;;;;;;98.07;32.60;;;8.80;99.90;;;;;;5046537;28;20049;-72
2023/02/23 13:19:18;;;;;;;97.30;31.45;;;8.60;99.90;;;;;;5052412;28;20044;-72
2023/02/23 13:21:50;;;;;;;98.25;35.25;;;8.80;99.90;;;;;;5052026;28;20094;-72
2023/02/23 13:24:28;;;;;;;107.82;31.40;;;8.60;99.90;;;;;;5051810;28;20051;-72
2023/02/23 13:26:59;;;;;;;92.28;31.70;;;8.70;99.90;;;;;;5052327;28;20112;-72
2023/02/23 13:29:54;;;;;;;103.20;34.05;;;8.80;99.90;;;;;;5052081;28;20073;-72
2023/02/23 13:32:23;;;;;;;102.95;32.35;;;8.80;99.90;;;;;;5051212;28;20053;-72
2023/02/23 13:35:03;;;;;;;103.60;32.30;;;8.80;99.90;;;;;;5051024;28;20083;-72
2023/02/23 13:37:48;;;;;;;62.15;16.98;;;8.90;99.90;;;;;;5048117;28;20048;-72
2023/02/23 13:40:35;;;;;;;30.25;8.55;;;8.50;99.90;;;;;;5051072;28;20445;-72
2023/02/23 13:43:16;;;;;;;35.85;7.68;;;8.40;99.90;;;;;;5050007;28;20041;-72
2023/02/23 13:45:55;;;;;;;35.35;7.47;;;7.90;99.90;;;;;;5051618;28;20105;-72
2023/02/23 13:48:51;;;;;;;35.80;7.15;;;7.80;99.90;;;;;;5050252;28;20508;-72
2023/02/23 13:51:37;;;;;;;38.95;8.07;;;7.70;99.90;;;;;;5049549;28;20040;-72
2023/02/23 13:54:29;;;;;;;42.22;8.77;;;7.60;99.90;;;;;;5049868;28;20573;-72
2023/02/23 13:56:57;;;;;;;41.90;7.57;;;7.70;99.90;;;;;;5051897;28;20090;-72
2023/02/23 13:59:44;;;;;;;36.83;7.32;;;7.70;99.90;;;;;;5050941;28;20032;-72
2023/02/23 14:02:33;;;;;;;34.97;8.32;;;7.60;99.90;;;;;;5049382;28;20408;-72
2023/02/23 14:05:06;;;;;;;43.00;8.57;;;7.50;99.90;;;;;;5049531;28;20029;-72
2023/02/23 14:07:37;;;;;;;45.45;9.77;;;7.40;99.90;;;;;;5051105;28;20039;-72
2023/02/23 14:10:06;;;;;;;42.47;8.13;;;7.60;99.90;;;;;;5051374;28;20036;-72
2023/02/23 14:12:37;;;;;;;48.20;9.65;;;7.40;99.90;;;;;;5051111;28;20519;-72
2023/02/23 14:15:24;;;;;;;49.13;8.85;;;7.20;99.90;;;;;;5051523;28;20076;-72